Time;durP1;ratioP1;P1;durP2;ratioP2;P2;SDS_P1;SDS_P2;PMS_P1;PMS_P2;Temp;Humidity;BMP_temperature;BMP_pressure;BME280_temperature;BME280_humidity;BME280_pressure;Samples;Min_cycle;Max_cycle;Signal;HPM_P1;HPM_P2
2022/10/28 00:01:17;;;;;;;0.40;0.40;;;13.90;99.90;;;;;;5050596;28;20148;-75
2022/10/28 00:03:49;;;;;;;0.40;0.40;;;13.80;99.90;;;;;;5050307;28;20114;-76
2022/10/28 00:06:18;;;;;;;0.30;0.30;;;13.80;99.90;;;;;;5047306;28;20411;-73
2022/10/28 00:08:44;;;;;;;0.30;0.30;;;13.80;99.90;;;;;;5040617;28;20126;-75
2022/10/28 00:11:19;;;;;;;0.30;0.30;;;13.80;99.90;;;;;;5042972;28;20085;-75
2022/10/28 00:13:45;;;;;;;0.40;0.40;;;13.90;99.90;;;;;;5031621;28;20045;-75
2022/10/28 00:16:16;;;;;;;0.63;0.63;;;13.90;99.90;;;;;;5047859;28;20066;-74
2022/10/28 00:18:43;;;;;;;0.30;0.30;;;14.00;99.90;;;;;;5029913;28;20053;-75
2022/10/28 00:21:10;;;;;;;;;;;14.10;99.90;;;;;;5034224;28;20044;-72
2022/10/28 00:23:37;;;;;;;0.30;0.30;;;14.10;99.90;;;;;;5062825;28;19924;-74
2022/10/28 00:26:08;;;;;;;0.28;0.28;;;14.20;99.90;;;;;;5042157;28;20116;-75
2022/10/28 00:28:34;;;;;;;0.40;0.40;;;14.30;99.90;;;;;;5040312;28;20456;-74
2022/10/28 00:31:05;;;;;;;0.65;0.65;;;14.30;99.90;;;;;;5035541;28;20112;-76
2022/10/28 00:33:30;;;;;;;0.32;0.32;;;14.40;99.90;;;;;;5040832;28;20045;-74
2022/10/28 00:35:56;;;;;;;0.30;0.30;;;14.50;99.90;;;;;;5062519;28;20122;-76
2022/10/28 00:38:29;;;;;;;0.35;0.35;;;14.50;99.90;;;;;;5044840;28;20771;-73
2022/10/28 00:40:55;;;;;;;0.40;0.40;;;14.50;99.90;;;;;;5042250;28;20056;-75
2022/10/28 00:43:39;;;;;;;0.30;0.30;;;14.50;99.90;;;;;;5044231;28;20044;-75
2022/10/28 00:46:24;;;;;;;0.30;0.30;;;14.50;99.90;;;;;;5045177;28;20372;-76
2022/10/28 00:48:55;;;;;;;0.30;0.30;;;14.50;99.90;;;;;;5043754;28;20110;-75
2022/10/28 00:51:23;;;;;;;0.30;0.30;;;14.50;99.90;;;;;;5044776;28;20962;-76
2022/10/28 00:53:51;;;;;;;0.30;0.30;;;14.40;99.90;;;;;;5047289;28;20036;-76
2022/10/28 00:56:18;;;;;;;0.32;0.32;;;14.40;99.90;;;;;;5033928;28;20041;-74
2022/10/28 00:58:46;;;;;;;0.30;0.30;;;14.40;99.90;;;;;;5051552;28;20055;-74
2022/10/28 01:01:11;;;;;;;0.50;0.50;;;14.40;99.90;;;;;;5035204;28;20108;-73
2022/10/28 01:03:38;;;;;;;0.60;0.60;;;14.40;99.90;;;;;;5051701;28;20587;-74
2022/10/28 01:06:05;;;;;;;0.50;0.50;;;14.40;99.90;;;;;;5047792;28;20490;-74
2022/10/28 01:08:31;;;;;;;0.40;0.40;;;14.30;99.90;;;;;;5039203;28;20608;-74
2022/10/28 01:11:08;;;;;;;1.13;1.13;;;14.30;99.90;;;;;;5043916;28;20078;-75
2022/10/28 01:13:47;;;;;;;0.52;0.52;;;14.30;99.90;;;;;;5036677;28;20152;-73
2022/10/28 01:16:17;;;;;;;0.50;0.50;;;14.30;99.90;;;;;;5043575;28;20033;-77
2022/10/28 01:19:12;;;;;;;0.77;0.55;;;14.30;99.90;;;;;;5049410;28;20407;-74
2022/10/28 01:22:11;;;;;;;0.38;0.38;;;14.30;99.90;;;;;;5051005;28;20106;-76
2022/10/28 01:24:46;;;;;;;0.95;0.95;;;14.30;99.90;;;;;;5045592;28;20037;-75
2022/10/28 01:27:36;;;;;;;0.30;0.30;;;14.20;99.90;;;;;;5034365;28;20034;-75
2022/10/28 01:30:22;;;;;;;0.30;0.30;;;14.10;99.90;;;;;;5041878;28;20487;-78
2022/10/28 01:33:24;;;;;;;0.40;0.40;;;14.00;99.90;;;;;;5046027;28;20051;-75
2022/10/28 01:36:26;;;;;;;0.25;0.25;;;13.90;99.90;;;;;;5039437;28;20045;-75
2022/10/28 01:39:07;;;;;;;0.50;0.50;;;13.80;99.90;;;;;;5051320;28;20404;-74
2022/10/28 01:41:42;;;;;;;0.30;0.30;;;13.80;99.90;;;;;;5042676;28;20048;-76
2022/10/28 01:44:32;;;;;;;0.30;0.30;;;13.70;99.90;;;;;;5049714;28;20052;-76
2022/10/28 01:47:10;;;;;;;0.30;0.30;;;13.60;99.90;;;;;;5049570;28;20049;-75
2022/10/28 01:49:46;;;;;;;0.28;0.28;;;13.50;99.90;;;;;;5044925;28;20085;-76
2022/10/28 01:52:15;;;;;;;0.20;0.20;;;13.40;99.90;;;;;;5040154;28;20045;-76
2022/10/28 01:54:46;;;;;;;0.30;0.30;;;13.30;99.90;;;;;;5044392;28;20064;-75
2022/10/28 01:57:13;;;;;;;0.20;0.20;;;13.30;99.90;;;;;;5051051;28;20036;-74
2022/10/28 01:59:40;;;;;;;0.28;0.28;;;13.20;99.90;;;;;;5048075;28;20051;-74
2022/10/28 02:02:06;;;;;;;0.32;0.32;;;13.30;99.90;;;;;;5048657;28;20068;-76
2022/10/28 02:04:32;;;;;;;0.20;0.20;;;13.30;99.90;;;;;;5029862;28;20490;-75
2022/10/28 02:06:59;;;;;;;0.40;0.40;;;13.20;99.90;;;;;;5038549;28;20033;-76
2022/10/28 02:09:43;;;;;;;0.30;0.30;;;13.10;99.90;;;;;;5031965;28;20167;-74
2022/10/28 02:12:30;;;;;;;0.40;0.40;;;13.00;99.90;;;;;;5039989;28;20033;-75
2022/10/28 02:15:05;;;;;;;0.30;0.30;;;12.90;99.90;;;;;;5047021;28;20496;-76
2022/10/28 02:17:47;;;;;;;0.30;0.30;;;12.80;99.90;;;;;;5032031;28;20037;-76
2022/10/28 02:20:35;;;;;;;0.30;0.30;;;12.80;99.90;;;;;;5037294;28;20049;-75
2022/10/28 02:23:19;;;;;;;;;;;12.70;99.90;;;;;;5049446;28;20463;-75
2022/10/28 02:25:54;;;;;;;0.30;0.30;;;12.60;99.90;;;;;;5041871;28;20325;-76
2022/10/28 02:28:41;;;;;;;0.30;0.30;;;12.50;99.90;;;;;;5030919;28;20049;-74
2022/10/28 02:31:36;;;;;;;0.80;0.40;;;12.50;99.90;;;;;;5044448;28;20049;-76
2022/10/28 02:34:13;;;;;;;0.30;0.30;;;12.50;99.90;;;;;;5044097;28;20071;-77
2022/10/28 02:36:44;;;;;;;0.30;0.30;;;12.50;99.90;;;;;;5036170;28;20041;-75
2022/10/28 02:39:10;;;;;;;0.47;0.47;;;12.50;99.90;;;;;;5037463;28;20385;-75
2022/10/28 02:41:50;;;;;;;0.47;0.47;;;12.40;99.90;;;;;;5033052;28;20128;-74
2022/10/28 02:44:25;;;;;;;0.40;0.40;;;12.40;99.90;;;;;;5039334;28;20076;-75
2022/10/28 02:46:54;;;;;;;0.40;0.40;;;12.40;99.90;;;;;;5045408;28;20056;-75
2022/10/28 02:49:20;;;;;;;0.40;0.40;;;12.40;99.90;;;;;;5048901;28;20375;-76
2022/10/28 02:51:56;;;;;;;0.35;0.35;;;12.30;99.90;;;;;;5043885;28;20044;-76
2022/10/28 02:54:31;;;;;;;0.30;0.30;;;12.30;99.90;;;;;;5039407;28;20119;-75
2022/10/28 02:57:11;;;;;;;0.45;0.45;;;12.30;99.90;;;;;;5042594;28;20504;-74
2022/10/28 02:59:37;;;;;;;0.30;0.30;;;12.30;99.90;;;;;;5036910;28;20171;-76
2022/10/28 03:02:04;;;;;;;0.40;0.40;;;12.30;99.90;;;;;;5042224;28;20041;-74
2022/10/28 03:04:31;;;;;;;0.30;0.30;;;12.20;99.90;;;;;;5038353;28;20494;-75
2022/10/28 03:06:57;;;;;;;0.40;0.40;;;12.20;99.90;;;;;;5047787;28;20727;-76
2022/10/28 03:09:22;;;;;;;0.30;0.30;;;12.10;99.90;;;;;;5030868;28;20041;-75
2022/10/28 03:11:48;;;;;;;0.30;0.30;;;12.10;99.90;;;;;;5043357;28;20163;-76
2022/10/28 03:14:14;;;;;;;0.20;0.20;;;12.10;99.90;;;;;;5028867;28;20073;-73
2022/10/28 03:16:39;;;;;;;0.35;0.35;;;12.10;99.90;;;;;;5046139;28;20044;-75
2022/10/28 03:19:05;;;;;;;0.50;0.50;;;12.00;99.90;;;;;;5041926;28;20053;-75
2022/10/28 03:21:31;;;;;;;0.40;0.40;;;12.00;99.90;;;;;;5051222;28;20039;-74
2022/10/28 03:23:56;;;;;;;0.30;0.30;;;12.00;99.90;;;;;;5046985;28;20124;-77
2022/10/28 03:26:22;;;;;;;0.30;0.30;;;11.90;99.90;;;;;;5031794;28;20044;-77
2022/10/28 03:28:47;;;;;;;0.60;0.60;;;11.90;99.90;;;;;;5046383;28;20049;-73
2022/10/28 03:31:14;;;;;;;0.30;0.30;;;11.90;99.90;;;;;;5037215;28;20088;-73
2022/10/28 03:33:40;;;;;;;0.30;0.30;;;11.90;99.90;;;;;;5041498;28;20403;-76
2022/10/28 03:36:06;;;;;;;0.30;0.30;;;11.80;99.90;;;;;;5037623;28;20049;-72
2022/10/28 03:38:31;;;;;;;0.50;0.50;;;11.80;99.90;;;;;;5038891;28;20078;-73
2022/10/28 03:40:57;;;;;;;0.35;0.35;;;11.90;99.90;;;;;;5032938;28;20040;-73
2022/10/28 03:43:23;;;;;;;0.40;0.40;;;11.90;99.90;;;;;;5036299;28;20051;-74
2022/10/28 03:45:48;;;;;;;0.35;0.35;;;11.90;99.90;;;;;;5036803;28;20088;-75
2022/10/28 03:48:14;;;;;;;0.30;0.30;;;11.90;99.90;;;;;;5045780;28;20075;-74
2022/10/28 03:50:40;;;;;;;0.30;0.30;;;11.90;99.90;;;;;;5053081;28;20378;-76
2022/10/28 03:53:06;;;;;;;0.38;0.38;;;11.90;99.90;;;;;;5039405;28;20043;-73
2022/10/28 03:55:31;;;;;;;0.30;0.30;;;11.90;99.90;;;;;;5036990;28;20092;-73
2022/10/28 03:58:00;;;;;;;0.32;0.32;;;11.80;99.90;;;;;;5031224;28;20471;-75
2022/10/28 04:00:27;;;;;;;0.70;0.70;;;11.90;99.90;;;;;;5048449;28;20069;-74
2022/10/28 04:02:53;;;;;;;0.30;0.30;;;11.80;99.90;;;;;;5031901;28;20487;-75
2022/10/28 04:05:19;;;;;;;0.38;0.38;;;11.80;99.90;;;;;;5047684;28;20036;-75
2022/10/28 04:07:46;;;;;;;0.32;0.32;;;11.90;99.90;;;;;;5038025;28;20049;-75
2022/10/28 04:10:12;;;;;;;0.40;0.40;;;11.90;99.90;;;;;;5049818;28;20454;-76
2022/10/28 04:12:37;;;;;;;0.20;0.20;;;11.80;99.90;;;;;;5050030;28;20594;-76
2022/10/28 04:15:04;;;;;;;0.40;0.40;;;11.80;99.90;;;;;;5047705;28;20037;-76
2022/10/28 04:17:29;;;;;;;0.30;0.30;;;11.80;99.90;;;;;;5048529;28;20368;-75
2022/10/28 04:19:55;;;;;;;0.30;0.30;;;11.80;99.90;;;;;;5048792;28;20140;-74
2022/10/28 04:22:20;;;;;;;0.30;0.30;;;11.80;99.90;;;;;;5048812;28;21904;-76
2022/10/28 04:24:46;;;;;;;0.30;0.30;;;11.70;99.90;;;;;;5049080;28;20049;-74
2022/10/28 04:27:12;;;;;;;0.20;0.20;;;11.80;99.90;;;;;;5038093;28;20041;-75
2022/10/28 04:29:37;;;;;;;0.30;0.30;;;11.70;99.90;;;;;;5037848;28;20056;-74
2022/10/28 04:32:04;;;;;;;;;;;11.80;99.90;;;;;;5054499;28;20056;-75
2022/10/28 04:34:29;;;;;;;0.38;0.38;;;11.70;99.90;;;;;;5038159;28;19924;-74
2022/10/28 04:36:55;;;;;;;0.38;0.38;;;11.70;99.90;;;;;;5046671;28;20052;-74
2022/10/28 04:39:21;;;;;;;0.30;0.30;;;11.70;99.90;;;;;;5054590;28;20044;-75
2022/10/28 04:41:46;;;;;;;0.40;0.40;;;11.80;99.90;;;;;;5045747;28;20466;-74
2022/10/28 04:44:12;;;;;;;0.30;0.30;;;11.80;99.90;;;;;;5048064;28;20045;-74
2022/10/28 04:46:38;;;;;;;0.38;0.38;;;11.80;99.90;;;;;;5051721;28;20040;-75
2022/10/28 04:49:03;;;;;;;0.40;0.40;;;11.90;99.90;;;;;;5050252;28;20118;-74
2022/10/28 04:51:29;;;;;;;0.40;0.40;;;11.90;99.90;;;;;;5053952;28;20041;-74
2022/10/28 04:53:55;;;;;;;0.90;0.90;;;11.90;99.90;;;;;;5054916;28;20090;-76
2022/10/28 04:56:21;;;;;;;0.40;0.40;;;11.90;99.90;;;;;;5036747;28;20120;-74
2022/10/28 04:58:47;;;;;;;0.40;0.40;;;11.90;99.90;;;;;;5036879;28;20052;-75
2022/10/28 05:01:13;;;;;;;0.80;0.80;;;11.90;99.90;;;;;;5054583;28;20041;-74
2022/10/28 05:03:38;;;;;;;0.30;0.30;;;11.90;99.90;;;;;;5054632;28;20047;-76
2022/10/28 05:06:04;;;;;;;0.82;0.82;;;11.90;99.90;;;;;;5036618;28;20064;-75
2022/10/28 05:08:30;;;;;;;0.30;0.30;;;11.90;99.90;;;;;;5041081;28;20482;-74
2022/10/28 05:10:56;;;;;;;0.40;0.40;;;11.90;99.90;;;;;;5047532;28;20449;-77
2022/10/28 05:13:21;;;;;;;0.50;0.50;;;12.00;99.90;;;;;;5033832;28;20069;-73
2022/10/28 05:15:48;;;;;;;0.32;0.32;;;12.00;99.90;;;;;;5033230;28;20033;-74
2022/10/28 05:18:13;;;;;;;0.40;0.40;;;12.00;99.90;;;;;;5027486;28;20041;-74
2022/10/28 05:20:39;;;;;;;0.40;0.40;;;12.00;99.90;;;;;;5047098;28;20308;-77
2022/10/28 05:23:05;;;;;;;0.43;0.43;;;11.90;99.90;;;;;;5053253;28;20088;-76
2022/10/28 05:25:31;;;;;;;0.70;0.70;;;11.90;99.90;;;;;;5054375;28;20478;-74
2022/10/28 05:27:58;;;;;;;0.40;0.40;;;11.90;99.90;;;;;;5057041;28;20597;-77
2022/10/28 05:30:25;;;;;;;0.30;0.30;;;11.90;99.90;;;;;;5053552;28;20076;-76
2022/10/28 05:32:50;;;;;;;0.40;0.40;;;11.90;99.90;;;;;;5044211;28;20079;-77
2022/10/28 05:35:16;;;;;;;0.40;0.40;;;12.00;99.90;;;;;;5040365;28;20036;-76
2022/10/28 05:37:42;;;;;;;0.30;0.30;;;11.90;99.90;;;;;;5052873;28;20040;-75
2022/10/28 05:40:08;;;;;;;;;;;11.90;99.90;;;;;;5045289;28;20666;-74
2022/10/28 05:42:41;;;;;;;0.55;0.55;;;11.90;99.90;;;;;;5037424;28;20374;-74
2022/10/28 05:45:07;;;;;;;0.30;0.30;;;11.90;99.90;;;;;;5040777;28;20041;-75
2022/10/28 05:47:33;;;;;;;0.30;0.30;;;11.90;99.90;;;;;;5046209;28;20041;-76
2022/10/28 05:49:59;;;;;;;0.35;0.35;;;11.90;99.90;;;;;;5050390;28;20076;-76
2022/10/28 05:52:24;;;;;;;0.60;0.60;;;11.90;99.90;;;;;;5050606;28;20143;-75
2022/10/28 05:54:50;;;;;;;0.60;0.60;;;11.90;99.90;;;;;;5043789;28;20533;-74
2022/10/28 05:57:16;;;;;;;0.90;0.65;;;11.80;99.90;;;;;;5053210;28;20036;-77
2022/10/28 05:59:41;;;;;;;0.50;0.50;;;11.80;99.90;;;;;;5049280;28;20084;-75
2022/10/28 06:02:13;;;;;;;0.50;0.50;;;11.80;99.90;;;;;;5047304;28;20118;-76
2022/10/28 06:04:40;;;;;;;0.30;0.30;;;11.80;99.90;;;;;;5041566;28;20494;-75
2022/10/28 06:07:05;;;;;;;0.30;0.30;;;11.80;99.90;;;;;;5052755;28;20055;-76
2022/10/28 06:09:31;;;;;;;0.50;0.50;;;11.80;99.90;;;;;;5034529;28;20041;-74
2022/10/28 06:11:57;;;;;;;0.30;0.30;;;11.70;99.90;;;;;;5033222;28;20041;-76
2022/10/28 06:14:22;;;;;;;0.30;0.30;;;11.80;99.90;;;;;;5035657;28;20037;-76
2022/10/28 06:16:48;;;;;;;0.40;0.40;;;11.70;99.90;;;;;;5052965;28;20035;-76
2022/10/28 06:19:14;;;;;;;0.40;0.40;;;11.70;99.90;;;;;;5052636;28;20482;-75
2022/10/28 06:21:40;;;;;;;0.30;0.30;;;11.70;99.90;;;;;;5032953;28;20433;-77
2022/10/28 06:24:07;;;;;;;0.40;0.40;;;11.60;99.90;;;;;;5051725;28;20049;-74
2022/10/28 06:26:33;;;;;;;0.40;0.40;;;11.60;99.90;;;;;;5031063;28;20041;-76
2022/10/28 06:28:59;;;;;;;1.48;1.38;;;11.60;99.90;;;;;;5041900;28;20486;-73
2022/10/28 06:31:24;;;;;;;0.35;0.35;;;11.50;99.90;;;;;;5051049;28;20047;-75
2022/10/28 06:33:50;;;;;;;0.32;0.32;;;11.50;99.90;;;;;;5052357;28;20437;-75
2022/10/28 06:36:16;;;;;;;0.40;0.40;;;11.50;99.90;;;;;;5050257;28;20049;-76
2022/10/28 06:38:41;;;;;;;0.40;0.40;;;11.50;99.90;;;;;;5045062;28;20045;-75
2022/10/28 06:41:07;;;;;;;0.40;0.40;;;11.60;99.90;;;;;;5051467;28;20037;-75
2022/10/28 06:43:33;;;;;;;;;;;11.50;99.90;;;;;;5049392;28;20383;-75
2022/10/28 06:46:04;;;;;;;0.30;0.30;;;11.00;99.90;;;;;;5044448;28;19931;-74
2022/10/28 06:48:30;;;;;;;0.30;0.30;;;11.60;99.90;;;;;;5052575;28;20057;-77
2022/10/28 06:50:57;;;;;;;0.40;0.40;;;11.70;99.90;;;;;;5051773;28;20124;-75
2022/10/28 06:53:23;;;;;;;0.40;0.40;;;11.70;99.90;;;;;;5032095;28;20470;-75
2022/10/28 06:55:54;;;;;;;0.38;0.38;;;11.80;99.90;;;;;;5032115;28;20490;-77
2022/10/28 06:58:20;;;;;;;0.50;0.50;;;12.00;99.90;;;;;;5051147;28;20084;-77
2022/10/28 07:00:46;;;;;;;;;;;12.10;99.90;;;;;;5050504;28;20048;-75
2022/10/28 07:03:11;;;;;;;0.32;0.32;;;12.10;99.90;;;;;;5051140;28;19917;-74
2022/10/28 07:05:37;;;;;;;0.32;0.30;;;12.10;99.90;;;;;;5053509;28;20037;-75
2022/10/28 07:08:04;;;;;;;0.30;0.30;;;12.20;99.90;;;;;;5051175;28;20498;-76
2022/10/28 07:10:29;;;;;;;0.40;0.40;;;12.30;99.90;;;;;;5050598;28;20406;-75
2022/10/28 07:12:55;;;;;;;0.25;0.25;;;12.30;99.90;;;;;;5050902;28;20053;-76
2022/10/28 07:15:21;;;;;;;4.38;0.90;;;12.50;99.90;;;;;;5055982;28;20041;-75
2022/10/28 07:17:54;;;;;;;0.30;0.30;;;12.50;99.90;;;;;;5052303;28;20390;-75
2022/10/28 07:20:21;;;;;;;0.55;0.55;;;12.60;99.90;;;;;;5049432;28;20128;-75
2022/10/28 07:22:47;;;;;;;0.50;0.50;;;12.70;99.90;;;;;;5045118;28;20048;-74
2022/10/28 07:25:13;;;;;;;0.60;0.60;;;12.80;99.90;;;;;;5053376;28;20040;-77
2022/10/28 07:27:38;;;;;;;0.45;0.45;;;13.00;99.90;;;;;;5059681;28;20040;-75
2022/10/28 07:30:05;;;;;;;0.60;0.60;;;13.00;99.90;;;;;;5052849;28;20962;-75
2022/10/28 07:32:31;;;;;;;1.20;1.10;;;13.20;99.90;;;;;;5055785;28;20043;-75
2022/10/28 07:34:57;;;;;;;0.43;0.43;;;13.30;99.90;;;;;;5052640;28;20079;-75
2022/10/28 07:37:28;;;;;;;0.40;0.40;;;13.80;99.90;;;;;;5052541;28;20099;-76
2022/10/28 07:39:58;;;;;;;0.60;0.60;;;13.40;99.90;;;;;;5053381;28;20156;-77
2022/10/28 07:42:24;;;;;;;0.80;0.80;;;13.50;99.90;;;;;;5047558;28;20048;-75
2022/10/28 07:44:51;;;;;;;0.50;0.50;;;13.60;99.90;;;;;;5047515;28;20060;-77
2022/10/28 07:47:18;;;;;;;0.47;0.47;;;13.60;99.90;;;;;;5052563;28;20461;-74
2022/10/28 07:49:44;;;;;;;1.45;0.88;;;13.70;99.90;;;;;;5046951;28;20049;-76
2022/10/28 07:52:09;;;;;;;1.02;0.85;;;13.70;99.90;;;;;;5021801;28;20128;-77
2022/10/28 07:54:35;;;;;;;0.47;0.47;;;13.80;99.90;;;;;;5047039;28;20045;-77
2022/10/28 07:57:02;;;;;;;;;;;13.90;99.90;;;;;;5048022;28;20132;-75
2022/10/28 07:59:30;;;;;;;1.67;1.58;;;14.00;99.90;;;;;;5047134;28;20321;-75
2022/10/28 08:01:56;;;;;;;0.60;0.60;;;14.20;99.90;;;;;;5051228;28;20072;-76
2022/10/28 08:04:23;;;;;;;1.27;1.17;;;14.10;99.90;;;;;;5032718;28;20091;-76
2022/10/28 08:06:48;;;;;;;1.05;0.95;;;14.20;99.90;;;;;;5051113;28;20066;-77
2022/10/28 08:09:15;;;;;;;0.43;0.43;;;14.30;99.90;;;;;;5046608;28;20071;-79
2022/10/28 08:11:41;;;;;;;0.55;0.55;;;14.30;99.90;;;;;;5048425;28;20041;-76
2022/10/28 08:14:07;;;;;;;0.82;0.82;;;14.40;99.90;;;;;;5050120;28;20048;-77
2022/10/28 08:16:32;;;;;;;;;;;14.60;99.90;;;;;;5037142;28;20041;-76
2022/10/28 08:18:58;;;;;;;0.40;0.40;;;14.70;99.90;;;;;;5055104;28;19916;-76
2022/10/28 08:21:25;;;;;;;3.38;1.50;;;14.70;99.90;;;;;;5056119;28;20041;-75
2022/10/28 08:23:53;;;;;;;0.63;0.63;;;14.80;99.90;;;;;;5051160;28;20410;-76
2022/10/28 08:26:19;;;;;;;0.85;0.70;;;14.90;99.90;;;;;;5053057;28;20051;-80
2022/10/28 08:28:45;;;;;;;;;;;15.10;99.90;;;;;;5053759;28;20082;-75
2022/10/28 08:31:11;;;;;;;0.63;0.52;;;15.10;99.90;;;;;;5053100;28;20004;-75
2022/10/28 08:33:38;;;;;;;;;;;15.20;99.90;;;;;;5034880;28;20379;-75
2022/10/28 08:36:05;;;;;;;;;;;15.20;99.90;;;;;;5056634;28;20389;-75
2022/10/28 08:38:30;;;;;;;0.50;0.50;;;15.40;99.90;;;;;;5054768;28;20292;-77
2022/10/28 08:41:18;;;;;;;0.43;0.43;;;15.40;99.90;;;;;;5052049;28;20037;-75
2022/10/28 08:43:55;;;;;;;1.33;0.95;;;15.60;99.90;;;;;;5053814;28;20090;-76
2022/10/28 08:46:45;;;;;;;0.43;0.43;;;15.80;99.90;;;;;;5047708;28;20048;-76
2022/10/28 08:49:20;;;;;;;0.55;0.55;;;15.90;99.90;;;;;;5048787;28;20053;-76
2022/10/28 08:52:00;;;;;;;0.50;0.50;;;16.00;99.90;;;;;;5053000;28;20060;-77
2022/10/28 08:54:41;;;;;;;0.63;0.60;;;16.10;99.90;;;;;;5049630;28;20092;-76
2022/10/28 08:57:16;;;;;;;1.65;1.55;;;16.30;99.90;;;;;;5049454;28;20439;-76
2022/10/28 08:59:44;;;;;;;0.30;0.30;;;16.40;99.90;;;;;;5049194;28;20524;-77
2022/10/28 09:02:09;;;;;;;0.40;0.40;;;16.40;99.90;;;;;;5051993;28;20095;-76
2022/10/28 09:04:40;;;;;;;0.88;0.60;;;16.70;99.90;;;;;;5063921;28;20045;-77
2022/10/28 09:07:17;;;;;;;0.30;0.30;;;16.60;99.90;;;;;;5050847;28;20045;-74
2022/10/28 09:09:43;;;;;;;;;;;16.60;99.90;;;;;;5036844;28;20079;-76
2022/10/28 09:12:22;;;;;;;0.40;0.40;;;16.70;99.90;;;;;;5054721;28;19952;-78
2022/10/28 09:15:10;;;;;;;0.57;0.57;;;16.80;99.90;;;;;;5031039;28;20500;-76
2022/10/28 09:18:03;;;;;;;1.75;1.40;;;16.80;99.90;;;;;;5041341;28;20052;-76
2022/10/28 09:20:54;;;;;;;0.20;0.20;;;16.80;99.90;;;;;;5051252;28;20029;-77
2022/10/28 09:23:31;;;;;;;0.90;0.75;;;16.90;99.90;;;;;;5053004;28;20037;-77
2022/10/28 09:26:16;;;;;;;0.70;0.70;;;17.00;99.90;;;;;;5053122;28;20079;-74
2022/10/28 09:29:01;;;;;;;0.93;0.93;;;17.00;99.90;;;;;;5049550;28;20402;-77
2022/10/28 09:31:27;;;;;;;0.30;0.30;;;17.00;99.90;;;;;;5048447;28;20060;-75
2022/10/28 09:34:11;;;;;;;;;;;17.10;99.90;;;;;;5054177;28;20044;-77
2022/10/28 09:36:44;;;;;;;0.60;0.60;;;17.10;99.90;;;;;;5061742;28;19916;-78
2022/10/28 09:39:18;;;;;;;0.30;0.30;;;17.20;99.90;;;;;;5032707;28;20150;-77
2022/10/28 09:41:46;;;;;;;0.28;0.28;;;17.30;99.90;;;;;;5052497;28;20036;-76
2022/10/28 09:44:20;;;;;;;2.00;1.55;;;17.20;99.90;;;;;;5054817;28;20421;-76
2022/10/28 09:46:48;;;;;;;1.73;0.55;;;17.20;99.90;;;;;;5053931;28;20167;-77
2022/10/28 09:49:19;;;;;;;0.60;0.60;;;17.30;99.90;;;;;;5050398;28;20049;-77
2022/10/28 09:52:06;;;;;;;0.30;0.30;;;17.30;99.90;;;;;;5042072;28;20115;-75
2022/10/28 09:54:39;;;;;;;0.73;0.73;;;17.30;99.90;;;;;;5052109;28;20071;-78
2022/10/28 09:57:05;;;;;;;0.40;0.40;;;17.40;99.90;;;;;;5052930;28;20383;-77
2022/10/28 09:59:32;;;;;;;0.93;0.93;;;17.40;99.90;;;;;;5054213;28;20044;-77
2022/10/28 10:01:57;;;;;;;3.03;1.60;;;17.50;99.90;;;;;;5051050;28;20033;-74
2022/10/28 10:04:25;;;;;;;0.50;0.50;;;17.40;99.90;;;;;;5050088;28;20045;-76
2022/10/28 10:06:56;;;;;;;0.40;0.40;;;17.50;99.90;;;;;;5065523;28;20079;-76
2022/10/28 10:09:29;;;;;;;0.75;0.47;;;17.50;99.90;;;;;;5067105;28;20048;-77
2022/10/28 10:12:01;;;;;;;0.30;0.30;;;17.60;99.90;;;;;;5035387;28;20048;-77
2022/10/28 10:14:44;;;;;;;0.63;0.63;;;17.90;99.90;;;;;;5052154;28;20498;-75
2022/10/28 10:17:18;;;;;;;0.40;0.40;;;17.80;99.90;;;;;;5063612;28;20045;-77
2022/10/28 10:20:05;;;;;;;0.43;0.43;;;18.00;99.90;;;;;;5050915;28;20062;-75
2022/10/28 10:22:39;;;;;;;1.60;1.50;;;18.10;99.90;;;;;;5041037;28;20055;-74
2022/10/28 10:25:21;;;;;;;0.35;0.35;;;18.00;99.90;;;;;;5051726;28;20291;-77
2022/10/28 10:28:03;;;;;;;0.73;0.73;;;18.10;99.90;;;;;;5046647;28;20481;-77
2022/10/28 10:30:47;;;;;;;1.10;0.93;;;18.20;99.90;;;;;;5064331;28;20041;-76
2022/10/28 10:33:39;;;;;;;0.40;0.40;;;18.20;99.90;;;;;;5051897;28;20048;-77
2022/10/28 10:36:22;;;;;;;0.50;0.50;;;18.30;99.90;;;;;;5054796;28;20053;-76
2022/10/28 10:38:51;;;;;;;0.68;0.68;;;18.50;99.90;;;;;;5033247;28;20128;-76
2022/10/28 10:41:42;;;;;;;1.25;1.15;;;18.40;99.90;;;;;;5051626;28;20036;-76
2022/10/28 10:44:21;;;;;;;0.43;0.43;;;18.40;99.90;;;;;;5044818;28;20082;-75
2022/10/28 10:47:06;;;;;;;0.57;0.57;;;18.50;99.90;;;;;;5046063;28;20040;-75
2022/10/28 10:49:38;;;;;;;0.30;0.30;;;18.60;99.90;;;;;;5054063;28;20052;-76
2022/10/28 10:52:27;;;;;;;0.57;0.47;;;18.60;99.90;;;;;;5051772;28;20446;-77
2022/10/28 10:55:06;;;;;;;1.13;0.95;;;18.70;99.90;;;;;;5048296;28;20036;-74
2022/10/28 10:57:32;;;;;;;0.30;0.30;;;18.80;99.90;;;;;;5066025;28;20116;-77
2022/10/28 10:59:58;;;;;;;1.88;1.77;;;19.00;99.90;;;;;;5034253;28;20124;-77
2022/10/28 11:02:24;;;;;;;;;;;18.90;99.90;;;;;;5034717;28;20124;-76
2022/10/28 11:05:00;;;;;;;0.88;0.47;;;19.00;99.90;;;;;;5065258;28;19924;-77
2022/10/28 11:07:28;;;;;;;0.90;0.90;;;19.00;99.90;;;;;;5045068;28;20044;-77
2022/10/28 11:09:54;;;;;;;0.47;0.47;;;19.00;99.90;;;;;;5035435;28;20041;-77
2022/10/28 11:12:27;;;;;;;1.10;1.05;;;18.90;99.90;;;;;;5053401;28;20049;-76
2022/10/28 11:14:56;;;;;;;1.00;0.82;;;18.90;99.90;;;;;;5052765;28;20064;-76
2022/10/28 11:17:31;;;;;;;0.57;0.57;;;18.80;99.90;;;;;;5050522;28;20390;-77
2022/10/28 11:19:59;;;;;;;0.95;0.70;;;18.90;99.90;;;;;;5053699;28;20045;-76
2022/10/28 11:22:51;;;;;;;0.52;0.52;;;19.00;99.90;;;;;;5049968;28;20136;-77
2022/10/28 11:25:39;;;;;;;0.43;0.43;;;19.20;99.90;;;;;;5049671;28;20033;-78
2022/10/28 11:28:26;;;;;;;0.77;0.57;;;19.20;99.90;;;;;;5049753;28;20051;-77
2022/10/28 11:30:57;;;;;;;0.52;0.52;;;19.20;99.90;;;;;;5042061;28;20415;-75
2022/10/28 11:33:45;;;;;;;0.68;0.68;;;19.30;99.90;;;;;;5050536;28;20413;-77
2022/10/28 11:36:59;;;;;;;0.75;0.70;;;19.30;99.90;;;;;;5049288;28;20076;-77
2022/10/28 11:39:29;;;;;;;1.25;0.40;;;19.40;99.90;;;;;;5055334;28;20049;-76
2022/10/28 11:42:11;;;;;;;1.80;0.85;;;19.50;99.90;;;;;;5035642;28;20047;-76
2022/10/28 11:44:47;;;;;;;0.45;0.45;;;19.70;99.90;;;;;;5049167;28;20045;-77
2022/10/28 11:47:43;;;;;;;1.85;1.75;;;19.60;99.90;;;;;;5049914;28;20111;-77
2022/10/28 11:50:46;;;;;;;0.40;0.40;;;19.70;99.90;;;;;;5047500;28;20115;-77
2022/10/28 11:53:23;;;;;;;1.05;1.00;;;19.60;99.90;;;;;;5048376;28;20049;-76
2022/10/28 11:55:51;;;;;;;;;;;19.90;99.90;;;;;;5051102;28;20036;-77
2022/10/28 11:58:59;;;;;;;0.90;0.90;;;19.80;99.90;;;;;;5050851;28;19931;-76
2022/10/28 12:01:37;;;;;;;;;;;19.90;99.90;;;;;;5052505;28;20048;-75
2022/10/28 12:04:09;;;;;;;0.20;0.20;;;20.00;99.90;;;;;;5039966;28;20369;-78
2022/10/28 12:07:10;;;;;;;0.63;0.63;;;20.10;99.90;;;;;;5059765;28;20526;-76
2022/10/28 12:10:13;;;;;;;0.77;0.77;;;20.20;99.90;;;;;;5051523;28;20057;-76
2022/10/28 12:13:08;;;;;;;1.30;0.70;;;20.30;99.90;;;;;;5040056;28;20179;-77
2022/10/28 12:16:04;;;;;;;1.42;1.38;;;20.40;99.90;;;;;;5041311;28;20056;-76
2022/10/28 12:18:42;;;;;;;0.40;0.40;;;20.30;99.90;;;;;;5047094;28;20044;-75
2022/10/28 12:21:22;;;;;;;0.60;0.60;;;20.30;99.90;;;;;;5053602;28;20462;-78
2022/10/28 12:23:50;;;;;;;0.60;0.60;;;20.30;99.90;;;;;;5064299;28;20032;-76
2022/10/28 12:26:18;;;;;;;1.02;1.02;;;20.30;99.90;;;;;;5050065;28;20575;-77
2022/10/28 12:29:02;;;;;;;0.60;0.60;;;20.20;99.90;;;;;;5048921;28;20037;-78
2022/10/28 12:31:38;;;;;;;1.88;1.77;;;20.20;99.90;;;;;;5049825;28;20033;-77
2022/10/28 12:34:11;;;;;;;1.25;1.25;;;20.20;99.90;;;;;;5026121;28;20048;-76
2022/10/28 12:37:02;;;;;;;0.80;0.80;;;20.10;99.90;;;;;;5048419;28;20037;-76
2022/10/28 12:39:38;;;;;;;0.60;0.60;;;20.00;99.90;;;;;;5063837;28;20045;-76
2022/10/28 12:42:17;;;;;;;0.57;0.52;;;20.00;99.90;;;;;;5046362;28;20048;-76
2022/10/28 12:44:43;;;;;;;1.35;1.35;;;20.00;99.90;;;;;;5030675;28;20048;-75
2022/10/28 12:47:36;;;;;;;0.70;0.70;;;19.90;99.90;;;;;;5032636;28;20044;-75
2022/10/28 12:50:38;;;;;;;2.53;0.63;;;19.90;99.90;;;;;;5046735;28;20057;-76
2022/10/28 12:53:04;;;;;;;0.20;0.20;;;19.90;99.90;;;;;;5048900;28;20037;-76
2022/10/28 12:55:36;;;;;;;0.50;0.50;;;19.90;99.90;;;;;;5052693;28;20066;-76
2022/10/28 12:58:11;;;;;;;0.28;0.28;;;19.90;99.90;;;;;;5053007;28;20040;-75
2022/10/28 13:00:42;;;;;;;0.40;0.40;;;19.80;99.90;;;;;;5064847;28;20033;-76
2022/10/28 13:03:13;;;;;;;0.68;0.68;;;19.80;99.90;;;;;;5053978;28;20560;-75
2022/10/28 13:05:51;;;;;;;0.60;0.60;;;19.90;99.90;;;;;;5034589;28;20124;-76
2022/10/28 13:09:01;;;;;;;0.65;0.65;;;19.90;99.90;;;;;;5061405;28;20094;-77
2022/10/28 13:11:35;;;;;;;0.98;0.60;;;20.00;99.90;;;;;;5031998;28;20033;-76
2022/10/28 13:14:28;;;;;;;0.40;0.40;;;20.00;99.90;;;;;;5025680;28;20042;-75
2022/10/28 13:17:18;;;;;;;0.40;0.40;;;20.00;99.90;;;;;;5026719;28;20049;-74